Deep River, Iowa
Current Conditions -  °F | °C
As of 6:15 AM on Thursday 29 Jan 2015 (Local Time) from KGGI Reporting Station
Overcast Overcast  
Wind Chill: -6°   Ceiling: 900
Heat Index:   Visibility: 7mi
Dew Point:   Wind: 21mph
Humidity: 94%   Direction: 310°NW
Pressure: 30"   Gusts: 24mph
Location:  41.58°N, 92.37°W
Report Text: KGGI 291215Z AUTO 31018G21KT 7SM OVC009 01/00 A3000 RMK AO2 T00080000
Loading
Personal Weather Stations






























Interactive Weather Map New forecast layout! Learn more

10-Day Weather Forecast

Advertisements
Track Severe Weather on mobile